sensor_id;sensor_type;location;lat;lon;timestamp;temperature;humidity
58153;DHT22;43967;51.634;5.566;2022-09-27T00:01:37;20.20;65.40
58153;DHT22;43967;51.634;5.566;2022-09-27T00:06:38;20.20;65.40
58153;DHT22;43967;51.634;5.566;2022-09-27T00:11:40;20.20;65.40
58153;DHT22;43967;51.634;5.566;2022-09-27T00:16:43;20.20;65.30
58153;DHT22;43967;51.634;5.566;2022-09-27T00:21:44;20.20;65.30
58153;DHT22;43967;51.634;5.566;2022-09-27T00:26:47;20.20;65.20
58153;DHT22;43967;51.634;5.566;2022-09-27T00:31:48;20.20;65.30
58153;DHT22;43967;51.634;5.566;2022-09-27T00:36:50;20.20;65.20
58153;DHT22;43967;51.634;5.566;2022-09-27T00:41:51;20.20;65.10
58153;DHT22;43967;51.634;5.566;2022-09-27T00:47:24;20.20;65.10
58153;DHT22;43967;51.634;5.566;2022-09-27T00:52:32;20.20;65.10
58153;DHT22;43967;51.634;5.566;2022-09-27T00:57:35;20.20;65.00
58153;DHT22;43967;51.634;5.566;2022-09-27T01:02:40;20.10;64.90
58153;DHT22;43967;51.634;5.566;2022-09-27T01:07:42;20.10;64.90
58153;DHT22;43967;51.634;5.566;2022-09-27T01:12:57;20.10;64.90
58153;DHT22;43967;51.634;5.566;2022-09-27T01:18:26;20.10;64.80
58153;DHT22;43967;51.634;5.566;2022-09-27T01:23:57;20.10;65.50
58153;DHT22;43967;51.634;5.566;2022-09-27T01:45:18;20.10;64.50
58153;DHT22;43967;51.634;5.566;2022-09-27T01:55:37;20.10;64.40
58153;DHT22;43967;51.634;5.566;2022-09-27T02:01:08;20.10;64.40
58153;DHT22;43967;51.634;5.566;2022-09-27T02:06:41;20.10;64.40
58153;DHT22;43967;51.634;5.566;2022-09-27T02:11:53;20.00;64.40
58153;DHT22;43967;51.634;5.566;2022-09-27T02:17:08;20.00;64.40
58153;DHT22;43967;51.634;5.566;2022-09-27T02:22:28;20.00;64.40
58153;DHT22;43967;51.634;5.566;2022-09-27T02:27:46;20.00;64.40
58153;DHT22;43967;51.634;5.566;2022-09-27T02:32:53;20.00;64.30
58153;DHT22;43967;51.634;5.566;2022-09-27T02:37:55;20.00;64.30
58153;DHT22;43967;51.634;5.566;2022-09-27T02:42:56;20.00;64.20
58153;DHT22;43967;51.634;5.566;2022-09-27T03:05:29;20.00;64.10
58153;DHT22;43967;51.634;5.566;2022-09-27T03:10:31;20.00;64.10
58153;DHT22;43967;51.634;5.566;2022-09-27T03:15:33;20.00;64.10
58153;DHT22;43967;51.634;5.566;2022-09-27T03:20:34;19.90;64.00
58153;DHT22;43967;51.634;5.566;2022-09-27T03:25:42;19.90;64.00
58153;DHT22;43967;51.634;5.566;2022-09-27T03:30:46;19.90;64.00
58153;DHT22;43967;51.634;5.566;2022-09-27T03:35:58;19.90;63.90
58153;DHT22;43967;51.634;5.566;2022-09-27T03:40:59;19.90;63.90
58153;DHT22;43967;51.634;5.566;2022-09-27T03:46:00;19.90;63.90
58153;DHT22;43967;51.634;5.566;2022-09-27T03:51:01;19.90;63.80
58153;DHT22;43967;51.634;5.566;2022-09-27T03:56:03;19.90;63.80
58153;DHT22;43967;51.634;5.566;2022-09-27T04:01:04;19.90;63.80
58153;DHT22;43967;51.634;5.566;2022-09-27T04:06:07;19.90;63.80
58153;DHT22;43967;51.634;5.566;2022-09-27T04:11:12;19.90;63.70
58153;DHT22;43967;51.634;5.566;2022-09-27T04:16:16;19.90;63.60
58153;DHT22;43967;51.634;5.566;2022-09-27T04:21:43;19.80;63.70
58153;DHT22;43967;51.634;5.566;2022-09-27T04:26:45;19.90;63.70
58153;DHT22;43967;51.634;5.566;2022-09-27T04:31:48;19.80;63.60
58153;DHT22;43967;51.634;5.566;2022-09-27T04:37:18;19.90;63.60
58153;DHT22;43967;51.634;5.566;2022-09-27T04:42:22;19.80;63.50
58153;DHT22;43967;51.634;5.566;2022-09-27T04:47:23;19.80;63.50
58153;DHT22;43967;51.634;5.566;2022-09-27T04:52:24;19.80;63.50
58153;DHT22;43967;51.634;5.566;2022-09-27T04:57:26;19.80;63.40
58153;DHT22;43967;51.634;5.566;2022-09-27T05:02:27;19.80;63.40
58153;DHT22;43967;51.634;5.566;2022-09-27T05:07:58;19.80;63.10
58153;DHT22;43967;51.634;5.566;2022-09-27T05:13:10;19.80;63.30
58153;DHT22;43967;51.634;5.566;2022-09-27T05:18:11;19.80;63.40
58153;DHT22;43967;51.634;5.566;2022-09-27T05:23:31;19.80;63.50
58153;DHT22;43967;51.634;5.566;2022-09-27T05:28:33;19.70;63.40
58153;DHT22;43967;51.634;5.566;2022-09-27T05:33:34;19.70;63.40
58153;DHT22;43967;51.634;5.566;2022-09-27T05:39:05;19.70;64.00
58153;DHT22;43967;51.634;5.566;2022-09-27T05:44:07;19.70;63.20
58153;DHT22;43967;51.634;5.566;2022-09-27T05:49:12;19.70;63.20
58153;DHT22;43967;51.634;5.566;2022-09-27T05:54:13;19.60;62.60
58153;DHT22;43967;51.634;5.566;2022-09-27T05:59:15;19.60;63.00
58153;DHT22;43967;51.634;5.566;2022-09-27T06:04:36;19.70;63.10
58153;DHT22;43967;51.634;5.566;2022-09-27T06:09:57;19.50;62.80
58153;DHT22;43967;51.634;5.566;2022-09-27T06:14:59;19.50;62.90
58153;DHT22;43967;51.634;5.566;2022-09-27T06:20:16;19.50;63.10
58153;DHT22;43967;51.634;5.566;2022-09-27T06:25:18;19.50;63.10
58153;DHT22;43967;51.634;5.566;2022-09-27T06:30:39;19.60;63.20
58153;DHT22;43967;51.634;5.566;2022-09-27T06:35:48;19.60;63.10
58153;DHT22;43967;51.634;5.566;2022-09-27T06:40:49;19.60;62.90
58153;DHT22;43967;51.634;5.566;2022-09-27T06:45:59;19.60;62.90
58153;DHT22;43967;51.634;5.566;2022-09-27T06:51:23;19.70;63.00
58153;DHT22;43967;51.634;5.566;2022-09-27T06:56:24;19.70;62.70
58153;DHT22;43967;51.634;5.566;2022-09-27T07:01:27;19.70;62.80
58153;DHT22;43967;51.634;5.566;2022-09-27T07:06:47;19.70;62.80
58153;DHT22;43967;51.634;5.566;2022-09-27T07:11:57;19.70;62.90
58153;DHT22;43967;51.634;5.566;2022-09-27T07:16:58;19.80;62.80
58153;DHT22;43967;51.634;5.566;2022-09-27T07:22:01;19.80;62.90
58153;DHT22;43967;51.634;5.566;2022-09-27T07:27:02;19.80;62.90
58153;DHT22;43967;51.634;5.566;2022-09-27T07:32:04;19.90;62.90
58153;DHT22;43967;51.634;5.566;2022-09-27T07:37:05;19.90;63.00
58153;DHT22;43967;51.634;5.566;2022-09-27T07:42:10;20.00;63.00
58153;DHT22;43967;51.634;5.566;2022-09-27T07:47:16;20.00;62.90
58153;DHT22;43967;51.634;5.566;2022-09-27T07:52:42;20.00;63.00
58153;DHT22;43967;51.634;5.566;2022-09-27T07:58:04;20.10;63.70
58153;DHT22;43967;51.634;5.566;2022-09-27T08:03:09;20.20;63.00
58153;DHT22;43967;51.634;5.566;2022-09-27T08:19:31;20.80;62.50
58153;DHT22;43967;51.634;5.566;2022-09-27T08:24:49;20.90;63.10
58153;DHT22;43967;51.634;5.566;2022-09-27T08:30:13;21.00;62.30
58153;DHT22;43967;51.634;5.566;2022-09-27T08:35:14;21.00;62.30
58153;DHT22;43967;51.634;5.566;2022-09-27T08:40:16;21.10;62.40
58153;DHT22;43967;51.634;5.566;2022-09-27T08:51:04;21.10;62.50
58153;DHT22;43967;51.634;5.566;2022-09-27T08:56:07;21.10;62.50
58153;DHT22;43967;51.634;5.566;2022-09-27T09:01:14;21.10;62.50
58153;DHT22;43967;51.634;5.566;2022-09-27T09:06:26;21.10;62.50
58153;DHT22;43967;51.634;5.566;2022-09-27T09:11:59;21.00;62.40
58153;DHT22;43967;51.634;5.566;2022-09-27T09:23:26;20.80;62.80
58153;DHT22;43967;51.634;5.566;2022-09-27T09:28:52;20.80;63.00
58153;DHT22;43967;51.634;5.566;2022-09-27T09:34:22;20.80;63.10
58153;DHT22;43967;51.634;5.566;2022-09-27T09:45:17;20.80;63.10
58153;DHT22;43967;51.634;5.566;2022-09-27T09:50:24;20.80;63.00
58153;DHT22;43967;51.634;5.566;2022-09-27T09:55:30;20.80;62.90
58153;DHT22;43967;51.634;5.566;2022-09-27T10:00:33;20.80;63.00
58153;DHT22;43967;51.634;5.566;2022-09-27T10:05:35;20.80;63.70
58153;DHT22;43967;51.634;5.566;2022-09-27T10:10:40;20.90;63.00
58153;DHT22;43967;51.634;5.566;2022-09-27T10:16:09;20.90;62.90
58153;DHT22;43967;51.634;5.566;2022-09-27T10:21:31;20.90;62.90
58153;DHT22;43967;51.634;5.566;2022-09-27T10:26:35;20.90;62.80
58153;DHT22;43967;51.634;5.566;2022-09-27T10:31:42;20.90;62.60
58153;DHT22;43967;51.634;5.566;2022-09-27T10:42:35;20.90;62.50
58153;DHT22;43967;51.634;5.566;2022-09-27T10:47:38;20.80;62.40
58153;DHT22;43967;51.634;5.566;2022-09-27T10:53:22;20.80;62.40
58153;DHT22;43967;51.634;5.566;2022-09-27T10:58:36;20.80;62.30
58153;DHT22;43967;51.634;5.566;2022-09-27T11:03:49;20.70;62.20
58153;DHT22;43967;51.634;5.566;2022-09-27T11:08:52;20.80;62.20
58153;DHT22;43967;51.634;5.566;2022-09-27T11:14:05;20.70;62.30
58153;DHT22;43967;51.634;5.566;2022-09-27T11:30:04;20.60;62.40
58153;DHT22;43967;51.634;5.566;2022-09-27T11:41:15;20.60;62.40
58153;DHT22;43967;51.634;5.566;2022-09-27T11:46:34;20.50;62.40
58153;DHT22;43967;51.634;5.566;2022-09-27T11:51:52;20.50;62.40
58153;DHT22;43967;51.634;5.566;2022-09-27T11:57:04;20.50;62.40
58153;DHT22;43967;51.634;5.566;2022-09-27T12:02:38;20.50;62.20
58153;DHT22;43967;51.634;5.566;2022-09-27T12:12:57;20.50;62.10
58153;DHT22;43967;51.634;5.566;2022-09-27T12:18:25;20.50;62.10
58153;DHT22;43967;51.634;5.566;2022-09-27T12:23:40;20.50;62.00
58153;DHT22;43967;51.634;5.566;2022-09-27T12:29:16;20.60;62.00
58153;DHT22;43967;51.634;5.566;2022-09-27T12:44:58;20.60;61.80
58153;DHT22;43967;51.634;5.566;2022-09-27T12:50:25;20.60;61.80
58153;DHT22;43967;51.634;5.566;2022-09-27T13:17:30;20.60;61.60
58153;DHT22;43967;51.634;5.566;2022-09-27T13:22:36;20.60;61.60
58153;DHT22;43967;51.634;5.566;2022-09-27T13:27:55;20.60;61.50
58153;DHT22;43967;51.634;5.566;2022-09-27T13:38:24;20.50;61.40
58153;DHT22;43967;51.634;5.566;2022-09-27T13:44:02;20.50;61.40
58153;DHT22;43967;51.634;5.566;2022-09-27T13:49:44;20.60;61.30
58153;DHT22;43967;51.634;5.566;2022-09-27T13:54:56;20.60;61.20
58153;DHT22;43967;51.634;5.566;2022-09-27T14:00:03;20.60;61.10
58153;DHT22;43967;51.634;5.566;2022-09-27T14:05:26;20.60;61.10
58153;DHT22;43967;51.634;5.566;2022-09-27T14:10:29;20.60;61.50
58153;DHT22;43967;51.634;5.566;2022-09-27T14:15:31;20.60;61.70
58153;DHT22;43967;51.634;5.566;2022-09-27T14:20:38;20.60;61.70
58153;DHT22;43967;51.634;5.566;2022-09-27T14:25:45;20.50;61.80
58153;DHT22;43967;51.634;5.566;2022-09-27T14:30:47;20.50;61.70
58153;DHT22;43967;51.634;5.566;2022-09-27T14:36:28;20.50;61.80
58153;DHT22;43967;51.634;5.566;2022-09-27T14:41:37;20.40;61.70
58153;DHT22;43967;51.634;5.566;2022-09-27T14:46:38;20.40;61.80
58153;DHT22;43967;51.634;5.566;2022-09-27T14:51:39;20.50;61.90
58153;DHT22;43967;51.634;5.566;2022-09-27T14:56:40;20.50;61.90
58153;DHT22;43967;51.634;5.566;2022-09-27T15:01:50;20.40;62.00
58153;DHT22;43967;51.634;5.566;2022-09-27T15:06:53;20.40;62.10
58153;DHT22;43967;51.634;5.566;2022-09-27T15:11:57;20.40;61.90
58153;DHT22;43967;51.634;5.566;2022-09-27T15:16:59;20.40;62.10
58153;DHT22;43967;51.634;5.566;2022-09-27T15:22:32;20.40;62.20
58153;DHT22;43967;51.634;5.566;2022-09-27T15:27:34;20.40;62.20
58153;DHT22;43967;51.634;5.566;2022-09-27T15:32:35;20.40;62.30
58153;DHT22;43967;51.634;5.566;2022-09-27T15:37:37;20.40;62.40
58153;DHT22;43967;51.634;5.566;2022-09-27T15:42:55;20.40;62.30
58153;DHT22;43967;51.634;5.566;2022-09-27T15:48:06;20.40;62.10
58153;DHT22;43967;51.634;5.566;2022-09-27T15:53:11;20.30;62.20
58153;DHT22;43967;51.634;5.566;2022-09-27T15:58:19;20.30;62.20
58153;DHT22;43967;51.634;5.566;2022-09-27T16:03:21;20.30;62.20
58153;DHT22;43967;51.634;5.566;2022-09-27T16:08:24;20.30;62.30
58153;DHT22;43967;51.634;5.566;2022-09-27T16:13:26;20.40;62.50
58153;DHT22;43967;51.634;5.566;2022-09-27T16:18:27;20.40;63.10
58153;DHT22;43967;51.634;5.566;2022-09-27T16:23:28;20.40;63.40
58153;DHT22;43967;51.634;5.566;2022-09-27T16:28:36;20.40;63.30
58153;DHT22;43967;51.634;5.566;2022-09-27T16:33:37;20.40;64.10
58153;DHT22;43967;51.634;5.566;2022-09-27T16:38:41;20.40;65.30
58153;DHT22;43967;51.634;5.566;2022-09-27T16:43:42;20.50;65.00
58153;DHT22;43967;51.634;5.566;2022-09-27T16:48:45;20.50;65.00
58153;DHT22;43967;51.634;5.566;2022-09-27T16:53:46;20.50;65.00
58153;DHT22;43967;51.634;5.566;2022-09-27T16:58:47;20.50;65.20
58153;DHT22;43967;51.634;5.566;2022-09-27T17:03:49;20.50;65.10
58153;DHT22;43967;51.634;5.566;2022-09-27T17:08:51;20.50;65.20
58153;DHT22;43967;51.634;5.566;2022-09-27T17:13:53;20.50;65.10
58153;DHT22;43967;51.634;5.566;2022-09-27T17:18:54;20.50;65.00
58153;DHT22;43967;51.634;5.566;2022-09-27T17:23:56;20.50;65.10
58153;DHT22;43967;51.634;5.566;2022-09-27T17:28:58;20.50;65.20
58153;DHT22;43967;51.634;5.566;2022-09-27T17:34:00;20.50;65.20
58153;DHT22;43967;51.634;5.566;2022-09-27T17:39:02;20.50;65.20
58153;DHT22;43967;51.634;5.566;2022-09-27T17:44:04;20.40;65.20
58153;DHT22;43967;51.634;5.566;2022-09-27T17:49:05;20.40;65.60
58153;DHT22;43967;51.634;5.566;2022-09-27T17:54:08;20.40;65.60
58153;DHT22;43967;51.634;5.566;2022-09-27T17:59:11;20.40;65.70
58153;DHT22;43967;51.634;5.566;2022-09-27T18:04:16;20.40;65.90
58153;DHT22;43967;51.634;5.566;2022-09-27T18:14:36;20.20;64.60
58153;DHT22;43967;51.634;5.566;2022-09-27T18:19:38;20.20;64.70
58153;DHT22;43967;51.634;5.566;2022-09-27T18:24:39;20.30;64.70
58153;DHT22;43967;51.634;5.566;2022-09-27T18:29:40;20.30;64.60
58153;DHT22;43967;51.634;5.566;2022-09-27T18:51:43;20.20;64.30
58153;DHT22;43967;51.634;5.566;2022-09-27T18:56:48;20.30;64.50
58153;DHT22;43967;51.634;5.566;2022-09-27T19:01:49;20.30;64.50
58153;DHT22;43967;51.634;5.566;2022-09-27T19:06:52;20.30;64.50
58153;DHT22;43967;51.634;5.566;2022-09-27T19:11:53;20.30;64.50
58153;DHT22;43967;51.634;5.566;2022-09-27T19:16:54;20.30;64.50
58153;DHT22;43967;51.634;5.566;2022-09-27T19:21:55;20.30;64.60
58153;DHT22;43967;51.634;5.566;2022-09-27T19:26:56;20.30;64.60
58153;DHT22;43967;51.634;5.566;2022-09-27T19:31:58;20.20;64.60
58153;DHT22;43967;51.634;5.566;2022-09-27T19:36:59;20.20;65.20
58153;DHT22;43967;51.634;5.566;2022-09-27T19:42:00;20.20;64.50
58153;DHT22;43967;51.634;5.566;2022-09-27T19:47:04;20.20;64.40
58153;DHT22;43967;51.634;5.566;2022-09-27T19:52:05;20.20;64.50
58153;DHT22;43967;51.634;5.566;2022-09-27T19:57:07;20.20;64.50
58153;DHT22;43967;51.634;5.566;2022-09-27T20:02:08;20.20;64.40
58153;DHT22;43967;51.634;5.566;2022-09-27T20:07:09;20.20;64.40
58153;DHT22;43967;51.634;5.566;2022-09-27T20:12:10;20.10;64.40
58153;DHT22;43967;51.634;5.566;2022-09-27T20:17:11;20.10;64.40
58153;DHT22;43967;51.634;5.566;2022-09-27T20:22:12;20.20;64.40
58153;DHT22;43967;51.634;5.566;2022-09-27T20:27:13;20.10;64.40
58153;DHT22;43967;51.634;5.566;2022-09-27T20:32:14;20.10;64.30
58153;DHT22;43967;51.634;5.566;2022-09-27T20:37:16;20.10;64.10
58153;DHT22;43967;51.634;5.566;2022-09-27T20:42:17;20.10;64.00
58153;DHT22;43967;51.634;5.566;2022-09-27T20:47:18;20.10;64.10
58153;DHT22;43967;51.634;5.566;2022-09-27T21:02:53;20.10;63.80
58153;DHT22;43967;51.634;5.566;2022-09-27T21:07:54;20.20;63.70
58153;DHT22;43967;51.634;5.566;2022-09-27T21:12:57;20.10;61.30
58153;DHT22;43967;51.634;5.566;2022-09-27T21:17:58;20.10;63.50
58153;DHT22;43967;51.634;5.566;2022-09-27T21:22:59;20.10;63.40
58153;DHT22;43967;51.634;5.566;2022-09-27T21:28:00;20.10;63.30
58153;DHT22;43967;51.634;5.566;2022-09-27T21:33:01;20.20;63.30
58153;DHT22;43967;51.634;5.566;2022-09-27T21:38:02;20.20;63.20
58153;DHT22;43967;51.634;5.566;2022-09-27T21:43:03;20.20;63.20
58153;DHT22;43967;51.634;5.566;2022-09-27T21:48:04;20.20;63.00
58153;DHT22;43967;51.634;5.566;2022-09-27T21:53:05;20.20;63.00
58153;DHT22;43967;51.634;5.566;2022-09-27T21:58:06;20.10;62.80
58153;DHT22;43967;51.634;5.566;2022-09-27T22:03:07;20.10;62.90
58153;DHT22;43967;51.634;5.566;2022-09-27T22:08:09;20.10;62.80
58153;DHT22;43967;51.634;5.566;2022-09-27T22:13:10;20.10;62.80
58153;DHT22;43967;51.634;5.566;2022-09-27T22:18:11;20.10;62.80
58153;DHT22;43967;51.634;5.566;2022-09-27T22:23:12;20.10;62.80
58153;DHT22;43967;51.634;5.566;2022-09-27T22:28:13;20.10;62.70
58153;DHT22;43967;51.634;5.566;2022-09-27T22:33:15;20.10;62.70
58153;DHT22;43967;51.634;5.566;2022-09-27T22:38:16;20.10;62.60
58153;DHT22;43967;51.634;5.566;2022-09-27T22:43:17;20.10;62.60
58153;DHT22;43967;51.634;5.566;2022-09-27T22:48:18;20.10;62.60
58153;DHT22;43967;51.634;5.566;2022-09-27T22:53:19;20.10;62.50
58153;DHT22;43967;51.634;5.566;2022-09-27T22:58:20;20.10;62.50
58153;DHT22;43967;51.634;5.566;2022-09-27T23:03:21;20.00;62.50
58153;DHT22;43967;51.634;5.566;2022-09-27T23:08:22;20.00;62.40
58153;DHT22;43967;51.634;5.566;2022-09-27T23:13:23;20.00;62.40
58153;DHT22;43967;51.634;5.566;2022-09-27T23:18:24;20.00;62.30
58153;DHT22;43967;51.634;5.566;2022-09-27T23:23:25;20.00;62.30
58153;DHT22;43967;51.634;5.566;2022-09-27T23:28:28;20.00;62.30
58153;DHT22;43967;51.634;5.566;2022-09-27T23:33:29;20.00;62.20
58153;DHT22;43967;51.634;5.566;2022-09-27T23:38:31;20.00;62.20
58153;DHT22;43967;51.634;5.566;2022-09-27T23:43:32;20.00;62.20
58153;DHT22;43967;51.634;5.566;2022-09-27T23:48:34;20.00;62.10
58153;DHT22;43967;51.634;5.566;2022-09-27T23:53:36;20.00;62.10
58153;DHT22;43967;51.634;5.566;2022-09-27T23:58:40;20.00;62.10
